sensor_id;sensor_type;location;lat;lon;timestamp;P1;durP1;ratioP1;P2;durP2;ratioP2
57832;SDS011;43667;53.036;6.740;2022-09-09T00:04:38;15.90;;;11.38;;
57832;SDS011;43667;53.036;6.740;2022-09-09T00:09:45;17.35;;;12.43;;
57832;SDS011;43667;53.036;6.740;2022-09-09T00:12:36;21.88;;;13.70;;
57832;SDS011;43667;53.036;6.740;2022-09-09T00:15:12;18.27;;;11.93;;
57832;SDS011;43667;53.036;6.740;2022-09-09T00:17:52;19.77;;;13.48;;
57832;SDS011;43667;53.036;6.740;2022-09-09T00:23:08;12.77;;;11.52;;
57832;SDS011;43667;53.036;6.740;2022-09-09T00:26:14;16.80;;;11.65;;
57832;SDS011;43667;53.036;6.740;2022-09-09T00:29:03;17.70;;;13.77;;
57832;SDS011;43667;53.036;6.740;2022-09-09T00:31:39;13.93;;;12.43;;
57832;SDS011;43667;53.036;6.740;2022-09-09T00:36:39;13.30;;;11.85;;
57832;SDS011;43667;53.036;6.740;2022-09-09T00:39:08;15.25;;;11.07;;
57832;SDS011;43667;53.036;6.740;2022-09-09T00:42:24;16.58;;;11.75;;
57832;SDS011;43667;53.036;6.740;2022-09-09T00:44:34;15.00;;;11.93;;
57832;SDS011;43667;53.036;6.740;2022-09-09T00:55:41;20.17;;;13.43;;
57832;SDS011;43667;53.036;6.740;2022-09-09T00:58:22;17.88;;;13.00;;
57832;SDS011;43667;53.036;6.740;2022-09-09T01:01:01;15.85;;;11.27;;
57832;SDS011;43667;53.036;6.740;2022-09-09T01:03:37;16.00;;;12.77;;
57832;SDS011;43667;53.036;6.740;2022-09-09T01:09:00;13.70;;;11.35;;
57832;SDS011;43667;53.036;6.740;2022-09-09T01:12:23;17.85;;;11.45;;
57832;SDS011;43667;53.036;6.740;2022-09-09T01:14:29;13.23;;;11.35;;
57832;SDS011;43667;53.036;6.740;2022-09-09T01:17:08;18.30;;;11.48;;
57832;SDS011;43667;53.036;6.740;2022-09-09T01:22:22;18.17;;;11.73;;
57832;SDS011;43667;53.036;6.740;2022-09-09T01:28:28;14.52;;;10.65;;
57832;SDS011;43667;53.036;6.740;2022-09-09T01:30:56;20.67;;;13.70;;
57832;SDS011;43667;53.036;6.740;2022-09-09T01:33:23;16.63;;;12.05;;
57832;SDS011;43667;53.036;6.740;2022-09-09T01:35:54;16.13;;;11.43;;
57832;SDS011;43667;53.036;6.740;2022-09-09T01:38:25;15.52;;;10.57;;
57832;SDS011;43667;53.036;6.740;2022-09-09T01:40:51;16.63;;;13.07;;
57832;SDS011;43667;53.036;6.740;2022-09-09T01:43:19;12.75;;;11.10;;
57832;SDS011;43667;53.036;6.740;2022-09-09T01:45:45;16.70;;;13.15;;
57832;SDS011;43667;53.036;6.740;2022-09-09T01:48:14;17.70;;;12.68;;
57832;SDS011;43667;53.036;6.740;2022-09-09T01:50:40;18.30;;;12.25;;
57832;SDS011;43667;53.036;6.740;2022-09-09T01:53:05;23.25;;;15.10;;
57832;SDS011;43667;53.036;6.740;2022-09-09T01:55:32;18.52;;;13.10;;
57832;SDS011;43667;53.036;6.740;2022-09-09T01:58:17;19.05;;;13.73;;
57832;SDS011;43667;53.036;6.740;2022-09-09T02:01:11;19.10;;;13.05;;
57832;SDS011;43667;53.036;6.740;2022-09-09T02:03:57;16.02;;;12.95;;
57832;SDS011;43667;53.036;6.740;2022-09-09T02:06:30;27.95;;;16.65;;
57832;SDS011;43667;53.036;6.740;2022-09-09T02:09:04;18.75;;;13.73;;
57832;SDS011;43667;53.036;6.740;2022-09-09T02:11:31;23.00;;;14.50;;
57832;SDS011;43667;53.036;6.740;2022-09-09T02:14:03;22.92;;;15.23;;
57832;SDS011;43667;53.036;6.740;2022-09-09T02:16:42;24.45;;;15.73;;
57832;SDS011;43667;53.036;6.740;2022-09-09T02:19:16;20.75;;;13.70;;
57832;SDS011;43667;53.036;6.740;2022-09-09T02:21:50;23.17;;;15.40;;
57832;SDS011;43667;53.036;6.740;2022-09-09T02:24:18;23.25;;;15.43;;
57832;SDS011;43667;53.036;6.740;2022-09-09T02:26:44;23.08;;;15.98;;
57832;SDS011;43667;53.036;6.740;2022-09-09T02:29:17;19.08;;;13.48;;
57832;SDS011;43667;53.036;6.740;2022-09-09T02:31:50;23.00;;;15.23;;
57832;SDS011;43667;53.036;6.740;2022-09-09T02:34:20;18.05;;;12.30;;
57832;SDS011;43667;53.036;6.740;2022-09-09T02:36:49;22.73;;;14.90;;
57832;SDS011;43667;53.036;6.740;2022-09-09T02:39:18;33.47;;;16.83;;
57832;SDS011;43667;53.036;6.740;2022-09-09T02:41:43;24.63;;;13.82;;
57832;SDS011;43667;53.036;6.740;2022-09-09T02:44:10;21.35;;;14.75;;
57832;SDS011;43667;53.036;6.740;2022-09-09T02:52:20;20.08;;;11.88;;
57832;SDS011;43667;53.036;6.740;2022-09-09T02:54:53;18.05;;;12.00;;
57832;SDS011;43667;53.036;6.740;2022-09-09T02:57:25;25.65;;;14.55;;
57832;SDS011;43667;53.036;6.740;2022-09-09T02:59:56;14.63;;;11.32;;
57832;SDS011;43667;53.036;6.740;2022-09-09T03:02:23;16.35;;;11.50;;
57832;SDS011;43667;53.036;6.740;2022-09-09T03:04:49;19.35;;;12.27;;
57832;SDS011;43667;53.036;6.740;2022-09-09T03:07:18;14.07;;;10.18;;
57832;SDS011;43667;53.036;6.740;2022-09-09T03:09:44;14.82;;;10.50;;
57832;SDS011;43667;53.036;6.740;2022-09-09T03:12:10;15.18;;;10.35;;
57832;SDS011;43667;53.036;6.740;2022-09-09T03:14:37;14.60;;;10.23;;
57832;SDS011;43667;53.036;6.740;2022-09-09T03:17:03;18.83;;;10.30;;
57832;SDS011;43667;53.036;6.740;2022-09-09T03:19:30;17.90;;;11.68;;
57832;SDS011;43667;53.036;6.740;2022-09-09T03:21:56;14.35;;;9.77;;
57832;SDS011;43667;53.036;6.740;2022-09-09T03:24:23;18.27;;;11.38;;
57832;SDS011;43667;53.036;6.740;2022-09-09T03:26:49;16.92;;;9.00;;
57832;SDS011;43667;53.036;6.740;2022-09-09T03:29:15;15.88;;;8.55;;
57832;SDS011;43667;53.036;6.740;2022-09-09T03:31:42;15.52;;;9.55;;
57832;SDS011;43667;53.036;6.740;2022-09-09T03:34:08;11.95;;;9.00;;
57832;SDS011;43667;53.036;6.740;2022-09-09T03:36:33;12.70;;;8.00;;
57832;SDS011;43667;53.036;6.740;2022-09-09T03:38:59;12.70;;;8.60;;
57832;SDS011;43667;53.036;6.740;2022-09-09T03:41:25;12.02;;;8.02;;
57832;SDS011;43667;53.036;6.740;2022-09-09T03:43:52;12.63;;;8.82;;
57832;SDS011;43667;53.036;6.740;2022-09-09T03:46:19;13.13;;;8.35;;
57832;SDS011;43667;53.036;6.740;2022-09-09T03:48:46;11.75;;;8.40;;
57832;SDS011;43667;53.036;6.740;2022-09-09T03:51:11;13.52;;;7.90;;
57832;SDS011;43667;53.036;6.740;2022-09-09T03:53:37;19.33;;;10.60;;
57832;SDS011;43667;53.036;6.740;2022-09-09T03:56:04;11.63;;;7.32;;
57832;SDS011;43667;53.036;6.740;2022-09-09T03:58:32;15.30;;;8.65;;
57832;SDS011;43667;53.036;6.740;2022-09-09T04:00:59;12.98;;;8.27;;
57832;SDS011;43667;53.036;6.740;2022-09-09T04:03:27;13.77;;;9.10;;
57832;SDS011;43667;53.036;6.740;2022-09-09T04:05:54;12.57;;;9.45;;
57832;SDS011;43667;53.036;6.740;2022-09-09T04:08:21;14.40;;;8.43;;
57832;SDS011;43667;53.036;6.740;2022-09-09T04:10:50;14.00;;;9.25;;
57832;SDS011;43667;53.036;6.740;2022-09-09T04:13:16;15.32;;;7.75;;
57832;SDS011;43667;53.036;6.740;2022-09-09T04:15:43;16.00;;;10.18;;
57832;SDS011;43667;53.036;6.740;2022-09-09T04:18:14;11.20;;;8.40;;
57832;SDS011;43667;53.036;6.740;2022-09-09T04:20:40;9.68;;;7.13;;
57832;SDS011;43667;53.036;6.740;2022-09-09T04:23:08;9.07;;;6.80;;
57832;SDS011;43667;53.036;6.740;2022-09-09T04:25:34;11.07;;;6.85;;
57832;SDS011;43667;53.036;6.740;2022-09-09T04:27:59;9.75;;;6.03;;
57832;SDS011;43667;53.036;6.740;2022-09-09T04:30:25;12.38;;;8.02;;
57832;SDS011;43667;53.036;6.740;2022-09-09T04:32:52;11.93;;;7.78;;
57832;SDS011;43667;53.036;6.740;2022-09-09T04:35:18;11.55;;;7.40;;
57832;SDS011;43667;53.036;6.740;2022-09-09T04:37:45;13.63;;;8.48;;
57832;SDS011;43667;53.036;6.740;2022-09-09T04:40:10;10.43;;;8.30;;
57832;SDS011;43667;53.036;6.740;2022-09-09T04:42:36;11.45;;;7.97;;
57832;SDS011;43667;53.036;6.740;2022-09-09T04:45:02;12.85;;;8.60;;
57832;SDS011;43667;53.036;6.740;2022-09-09T04:47:28;14.77;;;9.15;;
57832;SDS011;43667;53.036;6.740;2022-09-09T04:49:54;15.27;;;9.73;;
57832;SDS011;43667;53.036;6.740;2022-09-09T04:52:20;10.63;;;8.98;;
57832;SDS011;43667;53.036;6.740;2022-09-09T04:54:46;14.40;;;10.88;;
57832;SDS011;43667;53.036;6.740;2022-09-09T04:57:12;15.88;;;11.55;;
57832;SDS011;43667;53.036;6.740;2022-09-09T04:59:37;21.85;;;12.65;;
57832;SDS011;43667;53.036;6.740;2022-09-09T05:02:04;15.55;;;10.05;;
57832;SDS011;43667;53.036;6.740;2022-09-09T05:04:30;14.23;;;12.02;;
57832;SDS011;43667;53.036;6.740;2022-09-09T05:06:56;13.65;;;10.93;;
57832;SDS011;43667;53.036;6.740;2022-09-09T05:09:22;20.13;;;12.85;;
57832;SDS011;43667;53.036;6.740;2022-09-09T05:11:47;17.15;;;12.65;;
57832;SDS011;43667;53.036;6.740;2022-09-09T05:14:13;17.92;;;12.43;;
57832;SDS011;43667;53.036;6.740;2022-09-09T05:16:40;18.02;;;12.25;;
57832;SDS011;43667;53.036;6.740;2022-09-09T05:19:05;20.35;;;12.80;;
57832;SDS011;43667;53.036;6.740;2022-09-09T05:21:33;16.35;;;12.48;;
57832;SDS011;43667;53.036;6.740;2022-09-09T05:23:58;15.45;;;12.10;;
57832;SDS011;43667;53.036;6.740;2022-09-09T05:26:25;12.60;;;10.95;;
57832;SDS011;43667;53.036;6.740;2022-09-09T05:28:51;15.75;;;10.77;;
57832;SDS011;43667;53.036;6.740;2022-09-09T05:31:18;15.27;;;11.63;;
57832;SDS011;43667;53.036;6.740;2022-09-09T05:33:44;20.63;;;12.73;;
57832;SDS011;43667;53.036;6.740;2022-09-09T05:36:12;17.75;;;11.15;;
57832;SDS011;43667;53.036;6.740;2022-09-09T05:38:42;17.60;;;11.25;;
57832;SDS011;43667;53.036;6.740;2022-09-09T05:41:09;19.35;;;11.65;;
57832;SDS011;43667;53.036;6.740;2022-09-09T05:43:40;11.38;;;9.80;;
57832;SDS011;43667;53.036;6.740;2022-09-09T05:46:08;18.58;;;10.65;;
57832;SDS011;43667;53.036;6.740;2022-09-09T05:48:36;15.30;;;10.10;;
57832;SDS011;43667;53.036;6.740;2022-09-09T05:51:07;16.52;;;10.73;;
57832;SDS011;43667;53.036;6.740;2022-09-09T05:53:37;12.68;;;9.45;;
57832;SDS011;43667;53.036;6.740;2022-09-09T05:58:33;12.85;;;9.77;;
57832;SDS011;43667;53.036;6.740;2022-09-09T06:01:06;11.25;;;9.20;;
57832;SDS011;43667;53.036;6.740;2022-09-09T06:03:34;16.45;;;9.23;;
57832;SDS011;43667;53.036;6.740;2022-09-09T06:06:01;19.45;;;11.23;;
57832;SDS011;43667;53.036;6.740;2022-09-09T06:08:35;9.85;;;8.48;;
57832;SDS011;43667;53.036;6.740;2022-09-09T06:11:06;13.30;;;9.55;;
57832;SDS011;43667;53.036;6.740;2022-09-09T06:13:34;12.40;;;9.90;;
57832;SDS011;43667;53.036;6.740;2022-09-09T06:16:02;10.98;;;8.88;;
57832;SDS011;43667;53.036;6.740;2022-09-09T06:18:29;14.05;;;10.00;;
57832;SDS011;43667;53.036;6.740;2022-09-09T06:20:59;12.88;;;10.85;;
57832;SDS011;43667;53.036;6.740;2022-09-09T06:23:27;13.23;;;10.23;;
57832;SDS011;43667;53.036;6.740;2022-09-09T06:26:03;11.18;;;9.55;;
57832;SDS011;43667;53.036;6.740;2022-09-09T06:28:37;13.82;;;10.75;;
57832;SDS011;43667;53.036;6.740;2022-09-09T06:31:04;11.48;;;9.57;;
57832;SDS011;43667;53.036;6.740;2022-09-09T06:33:31;13.60;;;9.63;;
57832;SDS011;43667;53.036;6.740;2022-09-09T06:36:00;15.43;;;10.65;;
57832;SDS011;43667;53.036;6.740;2022-09-09T06:38:26;11.52;;;9.65;;
57832;SDS011;43667;53.036;6.740;2022-09-09T06:40:56;12.07;;;9.27;;
57832;SDS011;43667;53.036;6.740;2022-09-09T06:43:23;14.20;;;9.82;;
57832;SDS011;43667;53.036;6.740;2022-09-09T06:45:57;11.30;;;9.38;;
57832;SDS011;43667;53.036;6.740;2022-09-09T06:48:29;13.85;;;9.40;;
57832;SDS011;43667;53.036;6.740;2022-09-09T06:51:05;10.35;;;7.85;;
57832;SDS011;43667;53.036;6.740;2022-09-09T06:53:32;10.75;;;8.80;;
57832;SDS011;43667;53.036;6.740;2022-09-09T06:55:59;13.68;;;8.30;;
57832;SDS011;43667;53.036;6.740;2022-09-09T06:58:43;11.05;;;8.30;;
57832;SDS011;43667;53.036;6.740;2022-09-09T07:01:10;10.38;;;8.60;;
57832;SDS011;43667;53.036;6.740;2022-09-09T07:03:38;11.57;;;8.15;;
57832;SDS011;43667;53.036;6.740;2022-09-09T07:06:05;11.10;;;8.65;;
57832;SDS011;43667;53.036;6.740;2022-09-09T07:08:32;12.35;;;8.52;;
57832;SDS011;43667;53.036;6.740;2022-09-09T07:11:05;12.02;;;9.00;;
57832;SDS011;43667;53.036;6.740;2022-09-09T07:13:32;9.57;;;7.43;;
57832;SDS011;43667;53.036;6.740;2022-09-09T07:16:05;9.10;;;7.60;;
57832;SDS011;43667;53.036;6.740;2022-09-09T07:18:33;9.02;;;7.53;;
57832;SDS011;43667;53.036;6.740;2022-09-09T07:21:00;9.93;;;7.60;;
57832;SDS011;43667;53.036;6.740;2022-09-09T07:23:27;8.00;;;6.95;;
57832;SDS011;43667;53.036;6.740;2022-09-09T07:25:53;7.97;;;6.82;;
57832;SDS011;43667;53.036;6.740;2022-09-09T07:28:19;11.00;;;7.57;;
57832;SDS011;43667;53.036;6.740;2022-09-09T07:30:52;8.18;;;6.05;;
57832;SDS011;43667;53.036;6.740;2022-09-09T07:33:19;8.63;;;6.35;;
57832;SDS011;43667;53.036;6.740;2022-09-09T07:35:45;7.72;;;6.35;;
57832;SDS011;43667;53.036;6.740;2022-09-09T07:38:10;8.35;;;6.10;;
57832;SDS011;43667;53.036;6.740;2022-09-09T07:40:36;6.85;;;4.88;;
57832;SDS011;43667;53.036;6.740;2022-09-09T07:43:02;7.45;;;5.20;;
57832;SDS011;43667;53.036;6.740;2022-09-09T07:45:27;7.35;;;5.60;;
57832;SDS011;43667;53.036;6.740;2022-09-09T07:47:53;13.07;;;5.75;;
57832;SDS011;43667;53.036;6.740;2022-09-09T07:50:21;11.23;;;6.32;;
57832;SDS011;43667;53.036;6.740;2022-09-09T07:52:48;7.32;;;5.10;;
57832;SDS011;43667;53.036;6.740;2022-09-09T07:55:14;7.60;;;5.10;;
57832;SDS011;43667;53.036;6.740;2022-09-09T07:57:40;8.27;;;5.70;;
57832;SDS011;43667;53.036;6.740;2022-09-09T08:00:06;9.57;;;5.82;;
57832;SDS011;43667;53.036;6.740;2022-09-09T08:02:32;7.25;;;5.53;;
57832;SDS011;43667;53.036;6.740;2022-09-09T08:04:58;6.05;;;5.38;;
57832;SDS011;43667;53.036;6.740;2022-09-09T08:07:23;8.70;;;5.22;;
57832;SDS011;43667;53.036;6.740;2022-09-09T08:09:49;8.52;;;5.63;;
57832;SDS011;43667;53.036;6.740;2022-09-09T08:12:15;9.77;;;4.78;;
57832;SDS011;43667;53.036;6.740;2022-09-09T08:14:41;10.57;;;5.47;;
57832;SDS011;43667;53.036;6.740;2022-09-09T08:17:07;8.55;;;5.80;;
57832;SDS011;43667;53.036;6.740;2022-09-09T08:19:33;7.18;;;5.00;;
57832;SDS011;43667;53.036;6.740;2022-09-09T08:22:01;10.88;;;5.50;;
57832;SDS011;43667;53.036;6.740;2022-09-09T08:24:28;6.28;;;5.20;;
57832;SDS011;43667;53.036;6.740;2022-09-09T08:26:53;8.80;;;5.03;;
57832;SDS011;43667;53.036;6.740;2022-09-09T08:29:19;8.45;;;4.85;;
57832;SDS011;43667;53.036;6.740;2022-09-09T08:34:12;8.18;;;4.50;;
57832;SDS011;43667;53.036;6.740;2022-09-09T08:36:39;10.35;;;4.25;;
57832;SDS011;43667;53.036;6.740;2022-09-09T08:39:09;6.82;;;3.83;;
57832;SDS011;43667;53.036;6.740;2022-09-09T08:41:41;6.65;;;4.10;;
57832;SDS011;43667;53.036;6.740;2022-09-09T08:50:15;6.72;;;3.50;;
57832;SDS011;43667;53.036;6.740;2022-09-09T08:52:55;5.80;;;3.70;;
57832;SDS011;43667;53.036;6.740;2022-09-09T08:55:35;5.38;;;3.22;;
57832;SDS011;43667;53.036;6.740;2022-09-09T08:58:20;5.13;;;3.00;;
57832;SDS011;43667;53.036;6.740;2022-09-09T09:11:56;9.68;;;3.15;;
57832;SDS011;43667;53.036;6.740;2022-09-09T09:14:26;11.45;;;3.50;;
57832;SDS011;43667;53.036;6.740;2022-09-09T09:19:29;8.85;;;3.20;;
57832;SDS011;43667;53.036;6.740;2022-09-09T09:30:26;8.85;;;3.15;;
57832;SDS011;43667;53.036;6.740;2022-09-09T09:33:00;7.38;;;2.80;;
57832;SDS011;43667;53.036;6.740;2022-09-09T09:35:30;11.77;;;3.40;;
57832;SDS011;43667;53.036;6.740;2022-09-09T09:37:56;7.13;;;2.55;;
57832;SDS011;43667;53.036;6.740;2022-09-09T09:40:22;7.53;;;2.45;;
57832;SDS011;43667;53.036;6.740;2022-09-09T09:48:08;9.00;;;2.35;;
57832;SDS011;43667;53.036;6.740;2022-09-09T09:50:35;8.15;;;2.42;;
57832;SDS011;43667;53.036;6.740;2022-09-09T09:53:21;7.70;;;2.28;;
57832;SDS011;43667;53.036;6.740;2022-09-09T09:55:55;7.90;;;2.20;;
57832;SDS011;43667;53.036;6.740;2022-09-09T09:58:22;9.52;;;1.73;;
57832;SDS011;43667;53.036;6.740;2022-09-09T10:00:50;8.73;;;2.60;;
57832;SDS011;43667;53.036;6.740;2022-09-09T10:03:25;8.90;;;2.03;;
57832;SDS011;43667;53.036;6.740;2022-09-09T10:05:53;10.20;;;2.13;;
57832;SDS011;43667;53.036;6.740;2022-09-09T10:08:21;9.60;;;2.30;;
57832;SDS011;43667;53.036;6.740;2022-09-09T10:16:38;9.80;;;1.90;;
57832;SDS011;43667;53.036;6.740;2022-09-09T10:19:13;6.90;;;1.65;;
57832;SDS011;43667;53.036;6.740;2022-09-09T10:38:24;7.00;;;1.60;;
57832;SDS011;43667;53.036;6.740;2022-09-09T10:41:00;9.45;;;1.45;;
57832;SDS011;43667;53.036;6.740;2022-09-09T10:46:17;8.80;;;1.45;;
57832;SDS011;43667;53.036;6.740;2022-09-09T10:51:50;6.60;;;2.00;;
57832;SDS011;43667;53.036;6.740;2022-09-09T10:54:23;9.13;;;1.67;;
57832;SDS011;43667;53.036;6.740;2022-09-09T10:56:58;6.15;;;1.35;;
57832;SDS011;43667;53.036;6.740;2022-09-09T10:59:30;12.15;;;1.73;;
57832;SDS011;43667;53.036;6.740;2022-09-09T11:02:15;7.90;;;1.58;;
57832;SDS011;43667;53.036;6.740;2022-09-09T11:05:05;9.75;;;1.75;;
57832;SDS011;43667;53.036;6.740;2022-09-09T11:07:40;7.28;;;1.65;;
57832;SDS011;43667;53.036;6.740;2022-09-09T11:10:17;5.40;;;1.50;;
57832;SDS011;43667;53.036;6.740;2022-09-09T11:12:54;7.70;;;1.40;;
57832;SDS011;43667;53.036;6.740;2022-09-09T11:15:28;6.55;;;1.40;;
57832;SDS011;43667;53.036;6.740;2022-09-09T11:18:21;4.47;;;0.90;;
57832;SDS011;43667;53.036;6.740;2022-09-09T11:20:49;7.45;;;1.50;;
57832;SDS011;43667;53.036;6.740;2022-09-09T11:23:22;6.95;;;1.60;;
57832;SDS011;43667;53.036;6.740;2022-09-09T11:25:56;7.72;;;1.67;;
57832;SDS011;43667;53.036;6.740;2022-09-09T11:36:55;4.97;;;1.00;;
57832;SDS011;43667;53.036;6.740;2022-09-09T11:42:34;7.57;;;1.75;;
57832;SDS011;43667;53.036;6.740;2022-09-09T11:45:10;5.55;;;1.10;;
57832;SDS011;43667;53.036;6.740;2022-09-09T11:47:51;6.72;;;1.17;;
57832;SDS011;43667;53.036;6.740;2022-09-09T11:52:47;6.55;;;1.00;;
57832;SDS011;43667;53.036;6.740;2022-09-09T11:55:27;5.60;;;1.10;;
57832;SDS011;43667;53.036;6.740;2022-09-09T12:00:37;4.63;;;0.82;;
57832;SDS011;43667;53.036;6.740;2022-09-09T12:06:15;6.55;;;1.20;;
57832;SDS011;43667;53.036;6.740;2022-09-09T12:08:57;8.15;;;1.42;;
57832;SDS011;43667;53.036;6.740;2022-09-09T12:14:04;5.05;;;1.00;;
57832;SDS011;43667;53.036;6.740;2022-09-09T12:16:43;10.27;;;1.70;;
57832;SDS011;43667;53.036;6.740;2022-09-09T12:21:49;5.68;;;1.20;;
57832;SDS011;43667;53.036;6.740;2022-09-09T12:24:34;5.63;;;1.33;;
57832;SDS011;43667;53.036;6.740;2022-09-09T12:32:10;6.28;;;1.10;;
57832;SDS011;43667;53.036;6.740;2022-09-09T12:34:49;10.60;;;1.30;;
57832;SDS011;43667;53.036;6.740;2022-09-09T12:40:20;6.03;;;1.17;;
57832;SDS011;43667;53.036;6.740;2022-09-09T12:42:47;7.47;;;1.33;;
57832;SDS011;43667;53.036;6.740;2022-09-09T12:45:18;9.65;;;1.42;;
57832;SDS011;43667;53.036;6.740;2022-09-09T12:47:46;6.40;;;1.23;;
57832;SDS011;43667;53.036;6.740;2022-09-09T12:50:23;6.75;;;1.73;;
57832;SDS011;43667;53.036;6.740;2022-09-09T12:52:57;5.70;;;1.00;;
57832;SDS011;43667;53.036;6.740;2022-09-09T12:55:30;5.82;;;1.13;;
57832;SDS011;43667;53.036;6.740;2022-09-09T12:57:58;5.38;;;0.85;;
57832;SDS011;43667;53.036;6.740;2022-09-09T13:00:29;6.03;;;1.15;;
57832;SDS011;43667;53.036;6.740;2022-09-09T13:02:59;6.43;;;1.20;;
57832;SDS011;43667;53.036;6.740;2022-09-09T13:05:27;7.13;;;0.90;;
57832;SDS011;43667;53.036;6.740;2022-09-09T13:08:02;7.25;;;1.23;;
57832;SDS011;43667;53.036;6.740;2022-09-09T13:10:31;6.32;;;1.27;;
57832;SDS011;43667;53.036;6.740;2022-09-09T13:13:01;3.83;;;0.90;;
57832;SDS011;43667;53.036;6.740;2022-09-09T13:15:28;4.40;;;1.05;;
57832;SDS011;43667;53.036;6.740;2022-09-09T13:17:55;9.18;;;1.05;;
57832;SDS011;43667;53.036;6.740;2022-09-09T13:20:28;5.85;;;1.17;;
57832;SDS011;43667;53.036;6.740;2022-09-09T13:22:55;4.30;;;0.90;;
57832;SDS011;43667;53.036;6.740;2022-09-09T13:25:29;10.07;;;1.90;;
57832;SDS011;43667;53.036;6.740;2022-09-09T13:27:59;4.47;;;1.20;;
57832;SDS011;43667;53.036;6.740;2022-09-09T13:30:36;5.82;;;1.17;;
57832;SDS011;43667;53.036;6.740;2022-09-09T13:35:49;4.38;;;0.75;;
57832;SDS011;43667;53.036;6.740;2022-09-09T13:38:21;4.68;;;0.98;;
57832;SDS011;43667;53.036;6.740;2022-09-09T13:40:54;3.75;;;0.75;;
57832;SDS011;43667;53.036;6.740;2022-09-09T13:43:26;6.97;;;0.80;;
57832;SDS011;43667;53.036;6.740;2022-09-09T13:45:54;3.22;;;0.50;;
57832;SDS011;43667;53.036;6.740;2022-09-09T13:48:21;3.55;;;0.50;;
57832;SDS011;43667;53.036;6.740;2022-09-09T13:50:54;3.85;;;0.70;;
57832;SDS011;43667;53.036;6.740;2022-09-09T13:53:24;4.03;;;0.70;;
57832;SDS011;43667;53.036;6.740;2022-09-09T13:55:50;5.00;;;1.20;;
57832;SDS011;43667;53.036;6.740;2022-09-09T13:58:16;3.47;;;0.80;;
57832;SDS011;43667;53.036;6.740;2022-09-09T14:00:44;3.35;;;0.93;;
57832;SDS011;43667;53.036;6.740;2022-09-09T14:03:10;3.58;;;0.75;;
57832;SDS011;43667;53.036;6.740;2022-09-09T14:05:36;3.78;;;0.65;;
57832;SDS011;43667;53.036;6.740;2022-09-09T14:08:06;5.03;;;1.20;;
57832;SDS011;43667;53.036;6.740;2022-09-09T14:10:33;4.90;;;1.15;;
57832;SDS011;43667;53.036;6.740;2022-09-09T14:13:02;5.07;;;0.93;;
57832;SDS011;43667;53.036;6.740;2022-09-09T14:15:28;5.18;;;0.93;;
57832;SDS011;43667;53.036;6.740;2022-09-09T14:17:54;6.32;;;0.90;;
57832;SDS011;43667;53.036;6.740;2022-09-09T14:20:19;4.20;;;0.95;;
57832;SDS011;43667;53.036;6.740;2022-09-09T14:22:45;3.97;;;0.90;;
57832;SDS011;43667;53.036;6.740;2022-09-09T14:25:11;3.63;;;0.82;;
57832;SDS011;43667;53.036;6.740;2022-09-09T14:27:38;4.65;;;1.15;;
57832;SDS011;43667;53.036;6.740;2022-09-09T14:30:04;5.75;;;1.00;;
57832;SDS011;43667;53.036;6.740;2022-09-09T14:32:31;6.43;;;1.27;;
57832;SDS011;43667;53.036;6.740;2022-09-09T14:34:58;5.65;;;0.90;;
57832;SDS011;43667;53.036;6.740;2022-09-09T14:37:23;2.35;;;0.70;;
57832;SDS011;43667;53.036;6.740;2022-09-09T14:39:49;4.55;;;0.80;;
57832;SDS011;43667;53.036;6.740;2022-09-09T14:42:15;6.95;;;0.70;;
57832;SDS011;43667;53.036;6.740;2022-09-09T14:44:41;2.10;;;0.38;;
57832;SDS011;43667;53.036;6.740;2022-09-09T14:47:07;5.97;;;1.17;;
57832;SDS011;43667;53.036;6.740;2022-09-09T14:49:36;5.32;;;0.73;;
57832;SDS011;43667;53.036;6.740;2022-09-09T14:52:02;3.35;;;0.52;;
57832;SDS011;43667;53.036;6.740;2022-09-09T14:54:29;3.50;;;0.70;;
57832;SDS011;43667;53.036;6.740;2022-09-09T14:56:54;2.58;;;0.38;;
57832;SDS011;43667;53.036;6.740;2022-09-09T14:59:22;2.72;;;0.40;;
57832;SDS011;43667;53.036;6.740;2022-09-09T15:01:47;2.97;;;0.38;;
57832;SDS011;43667;53.036;6.740;2022-09-09T15:04:13;2.00;;;0.40;;
57832;SDS011;43667;53.036;6.740;2022-09-09T15:06:42;3.78;;;0.47;;
57832;SDS011;43667;53.036;6.740;2022-09-09T15:09:12;2.08;;;0.30;;
57832;SDS011;43667;53.036;6.740;2022-09-09T15:11:37;2.15;;;0.50;;
57832;SDS011;43667;53.036;6.740;2022-09-09T15:14:03;3.22;;;0.40;;
57832;SDS011;43667;53.036;6.740;2022-09-09T15:16:30;2.58;;;0.40;;
57832;SDS011;43667;53.036;6.740;2022-09-09T15:18:57;1.42;;;0.20;;
57832;SDS011;43667;53.036;6.740;2022-09-09T15:21:34;2.42;;;0.32;;
57832;SDS011;43667;53.036;6.740;2022-09-09T15:24:01;2.45;;;0.40;;
57832;SDS011;43667;53.036;6.740;2022-09-09T15:26:27;1.38;;;0.40;;
57832;SDS011;43667;53.036;6.740;2022-09-09T15:28:55;3.40;;;0.38;;
57832;SDS011;43667;53.036;6.740;2022-09-09T15:31:24;1.92;;;0.47;;
57832;SDS011;43667;53.036;6.740;2022-09-09T15:36:26;3.10;;;0.55;;
57832;SDS011;43667;53.036;6.740;2022-09-09T15:39:13;3.65;;;0.50;;
57832;SDS011;43667;53.036;6.740;2022-09-09T15:41:41;4.40;;;0.60;;
57832;SDS011;43667;53.036;6.740;2022-09-09T15:44:08;3.03;;;0.65;;
57832;SDS011;43667;53.036;6.740;2022-09-09T15:46:39;4.28;;;0.50;;
57832;SDS011;43667;53.036;6.740;2022-09-09T15:51:37;1.63;;;0.30;;
57832;SDS011;43667;53.036;6.740;2022-09-09T15:54:03;2.03;;;0.50;;
57832;SDS011;43667;53.036;6.740;2022-09-09T15:56:29;2.35;;;0.43;;
57832;SDS011;43667;53.036;6.740;2022-09-09T15:58:56;2.88;;;0.32;;
57832;SDS011;43667;53.036;6.740;2022-09-09T16:01:22;3.35;;;0.40;;
57832;SDS011;43667;53.036;6.740;2022-09-09T16:03:48;3.35;;;0.60;;
57832;SDS011;43667;53.036;6.740;2022-09-09T16:06:16;1.45;;;0.35;;
57832;SDS011;43667;53.036;6.740;2022-09-09T16:08:46;2.42;;;0.80;;
57832;SDS011;43667;53.036;6.740;2022-09-09T16:11:19;3.75;;;0.50;;
57832;SDS011;43667;53.036;6.740;2022-09-09T16:13:48;2.80;;;0.82;;
57832;SDS011;43667;53.036;6.740;2022-09-09T16:16:16;2.63;;;0.90;;
57832;SDS011;43667;53.036;6.740;2022-09-09T16:18:51;2.75;;;0.52;;
57832;SDS011;43667;53.036;6.740;2022-09-09T16:23:54;2.75;;;0.63;;
57832;SDS011;43667;53.036;6.740;2022-09-09T16:26:21;3.92;;;0.63;;
57832;SDS011;43667;53.036;6.740;2022-09-09T16:28:47;1.95;;;0.43;;
57832;SDS011;43667;53.036;6.740;2022-09-09T16:31:14;2.05;;;0.60;;
57832;SDS011;43667;53.036;6.740;2022-09-09T16:33:42;3.25;;;0.68;;
57832;SDS011;43667;53.036;6.740;2022-09-09T16:36:12;2.65;;;0.73;;
57832;SDS011;43667;53.036;6.740;2022-09-09T16:38:40;2.15;;;0.63;;
57832;SDS011;43667;53.036;6.740;2022-09-09T16:41:06;5.20;;;1.08;;
57832;SDS011;43667;53.036;6.740;2022-09-09T16:43:33;4.07;;;0.85;;
57832;SDS011;43667;53.036;6.740;2022-09-09T16:46:00;2.22;;;0.50;;
57832;SDS011;43667;53.036;6.740;2022-09-09T16:48:30;4.75;;;0.85;;
57832;SDS011;43667;53.036;6.740;2022-09-09T16:51:06;3.25;;;0.70;;
57832;SDS011;43667;53.036;6.740;2022-09-09T16:53:35;3.17;;;0.60;;
57832;SDS011;43667;53.036;6.740;2022-09-09T16:56:05;3.58;;;0.85;;
57832;SDS011;43667;53.036;6.740;2022-09-09T16:58:31;3.80;;;0.70;;
57832;SDS011;43667;53.036;6.740;2022-09-09T17:00:58;1.92;;;0.60;;
57832;SDS011;43667;53.036;6.740;2022-09-09T17:03:24;4.75;;;0.70;;
57832;SDS011;43667;53.036;6.740;2022-09-09T17:05:49;4.93;;;0.80;;
57832;SDS011;43667;53.036;6.740;2022-09-09T17:08:15;2.50;;;0.73;;
57832;SDS011;43667;53.036;6.740;2022-09-09T17:10:41;3.08;;;0.70;;
57832;SDS011;43667;53.036;6.740;2022-09-09T17:13:07;3.28;;;0.70;;
57832;SDS011;43667;53.036;6.740;2022-09-09T17:15:33;2.28;;;0.77;;
57832;SDS011;43667;53.036;6.740;2022-09-09T17:18:03;2.70;;;0.70;;